Time;durP1;ratioP1;P1;durP2;ratioP2;P2;SDS_P1;SDS_P2;PMS_P1;PMS_P2;Temp;Humidity;BMP_temperature;BMP_pressure;BME280_temperature;BME280_humidity;BME280_pressure;Samples;Min_cycle;Max_cycle;Signal;HPM_P1;HPM_P2
2022/07/23 00:00:09;;;;;;;4.90;4.30;;;;;;;;;;4915218;29;20044;-73
2022/07/23 00:02:36;;;;;;;4.80;4.20;;;;;;;;;;4915364;29;20067;-73
2022/07/23 00:05:03;;;;;;;4.15;3.67;;;;;;;;;;4915975;29;20048;-73
2022/07/23 00:07:29;;;;;;;5.72;4.03;;;;;;;;;;4916609;29;20063;-72
2022/07/23 00:09:56;;;;;;;5.38;3.95;;;;;;;;;;4916144;29;20058;-73
2022/07/23 00:12:22;;;;;;;4.43;3.70;;;;;;;;;;4917110;29;20055;-74
2022/07/23 00:14:49;;;;;;;4.28;3.88;;;;;;;;;;4916422;29;20055;-74
2022/07/23 00:17:16;;;;;;;4.00;3.55;;;;;;;;;;4916421;29;20154;-73
2022/07/23 00:19:42;;;;;;;4.22;3.75;;;;;;;;;;4916243;29;20137;-74
2022/07/23 00:22:09;;;;;;;4.82;4.10;;;;;;;;;;4916357;29;20056;-74
2022/07/23 00:24:36;;;;;;;4.25;3.92;;;;;;;;;;4916726;29;20059;-72
2022/07/23 00:27:02;;;;;;;3.92;3.63;;;;;;;;;;4916721;29;20056;-74
2022/07/23 00:29:29;;;;;;;4.45;4.05;;;;;;;;;;4916009;29;20052;-74
2022/07/23 00:31:56;;;;;;;4.50;4.10;;;;;;;;;;4915875;29;20526;-73
2022/07/23 00:34:22;;;;;;;4.03;3.63;;;;;;;;;;4914743;29;20048;-74
2022/07/23 00:36:49;;;;;;;4.65;3.55;;;;;;;;;;4915696;29;20052;-74
2022/07/23 00:39:16;;;;;;;4.20;3.72;;;;;;;;;;4914542;29;20063;-73
2022/07/23 00:41:42;;;;;;;6.05;3.63;;;;;;;;;;4916098;29;20063;-73
2022/07/23 00:44:15;;;;;;;3.83;3.50;;;;;;;;;;4916035;29;20413;-74
2022/07/23 00:46:52;;;;;;;4.45;3.15;;;;;;;;;;4915882;29;20496;-73
2022/07/23 00:49:27;;;;;;;5.28;3.85;;;;;;;;;;4914752;29;20052;-74
2022/07/23 00:51:54;;;;;;;3.40;2.88;;;;;;;;;;4915897;29;20055;-74
2022/07/23 00:54:22;;;;;;;3.22;2.95;;;;;;;;;;4915785;29;20056;-72
2022/07/23 00:56:49;;;;;;;3.53;3.20;;;;;;;;;;4915808;29;20056;-73
2022/07/23 00:59:15;;;;;;;3.70;3.33;;;;;;;;;;4914539;29;20527;-73
2022/07/23 01:01:44;;;;;;;4.32;3.50;;;;;;;;;;4916135;29;20423;-74
2022/07/23 01:04:11;;;;;;;4.72;3.20;;;;;;;;;;4915873;29;20590;-73
2022/07/23 01:06:38;;;;;;;3.60;3.30;;;;;;;;;;4915938;29;20119;-73
2022/07/23 01:09:05;;;;;;;4.13;3.50;;;;;;;;;;4914238;29;20056;-73
2022/07/23 01:11:36;;;;;;;5.00;3.72;;;;;;;;;;4916661;29;20491;-74
2022/07/23 01:14:16;;;;;;;4.22;3.55;;;;;;;;;;4919013;29;20060;-72
2022/07/23 01:16:44;;;;;;;3.75;3.35;;;;;;;;;;4918053;29;20079;-74
2022/07/23 01:19:11;;;;;;;3.90;3.13;;;;;;;;;;4918831;29;20052;-74
2022/07/23 01:21:45;;;;;;;5.55;3.55;;;;;;;;;;4917882;29;20072;-73
2022/07/23 01:24:13;;;;;;;3.97;3.35;;;;;;;;;;4917818;29;20067;-73
2022/07/23 01:26:43;;;;;;;6.68;3.65;;;;;;;;;;4917781;29;20068;-73
2022/07/23 01:29:10;;;;;;;4.35;3.60;;;;;;;;;;4918913;29;20056;-73
2022/07/23 01:31:37;;;;;;;3.83;3.53;;;;;;;;;;4918805;29;20503;-74
2022/07/23 01:34:06;;;;;;;4.35;3.35;;;;;;;;;;4918407;29;20071;-74
2022/07/23 01:36:34;;;;;;;4.32;3.60;;;;;;;;;;4917715;29;20048;-73
2022/07/23 01:39:01;;;;;;;3.13;2.90;;;;;;;;;;4918584;29;20063;-73
2022/07/23 01:41:29;;;;;;;3.72;3.13;;;;;;;;;;4917691;29;20452;-73
2022/07/23 01:43:56;;;;;;;3.53;3.13;;;;;;;;;;4918456;29;20097;-73
2022/07/23 01:46:22;;;;;;;3.67;3.38;;;;;;;;;;4918439;29;20052;-74
2022/07/23 01:48:49;;;;;;;3.75;3.30;;;;;;;;;;4918148;29;20052;-73
2022/07/23 01:51:16;;;;;;;4.00;3.67;;;;;;;;;;4918345;29;20376;-73
2022/07/23 01:53:42;;;;;;;5.57;3.05;;;;;;;;;;4918485;29;20059;-74
2022/07/23 01:56:09;;;;;;;3.85;3.22;;;;;;;;;;4918472;29;20100;-74
2022/07/23 01:58:35;;;;;;;3.78;3.45;;;;;;;;;;4918176;29;20064;-74
2022/07/23 02:01:02;;;;;;;5.03;3.53;;;;;;;;;;4918525;29;20519;-73
2022/07/23 02:03:29;;;;;;;4.10;3.70;;;;;;;;;;4918185;29;20102;-74
2022/07/23 02:05:55;;;;;;;4.10;3.58;;;;;;;;;;4918563;29;20052;-73
2022/07/23 02:08:22;;;;;;;3.72;3.35;;;;;;;;;;4916746;29;20048;-72
2022/07/23 02:10:51;;;;;;;4.70;3.53;;;;;;;;;;4918301;29;20060;-74
2022/07/23 02:13:18;;;;;;;3.30;3.00;;;;;;;;;;4918974;29;20108;-74
2022/07/23 02:15:46;;;;;;;4.43;4.00;;;;;;;;;;4921430;29;20100;-73
2022/07/23 02:18:13;;;;;;;4.97;3.25;;;;;;;;;;4931649;29;20487;-73
2022/07/23 02:20:40;;;;;;;3.88;3.45;;;;;;;;;;4925575;29;20131;-74
2022/07/23 02:23:07;;;;;;;3.80;3.50;;;;;;;;;;4915636;29;20059;-74
2022/07/23 02:25:34;;;;;;;5.00;3.53;;;;;;;;;;4917979;29;20075;-74
2022/07/23 02:28:01;;;;;;;4.00;3.42;;;;;;;;;;4917844;29;20063;-73
2022/07/23 02:30:27;;;;;;;4.00;3.70;;;;;;;;;;4916392;29;20052;-74
2022/07/23 02:32:54;;;;;;;3.65;3.35;;;;;;;;;;4916694;29;20066;-73
2022/07/23 02:35:21;;;;;;;4.13;3.72;;;;;;;;;;4917657;29;20060;-73
2022/07/23 02:37:47;;;;;;;4.47;3.83;;;;;;;;;;4917821;29;20056;-73
2022/07/23 02:40:16;;;;;;;6.35;3.95;;;;;;;;;;4917352;29;20048;-73
2022/07/23 02:42:43;;;;;;;3.70;3.33;;;;;;;;;;4917883;29;20056;-73
2022/07/23 02:45:10;;;;;;;4.80;3.72;;;;;;;;;;4918444;29;20054;-73
2022/07/23 02:47:36;;;;;;;3.58;3.28;;;;;;;;;;4918266;29;20060;-73
2022/07/23 02:50:05;;;;;;;4.07;3.55;;;;;;;;;;4917295;29;20419;-73
2022/07/23 02:52:32;;;;;;;3.72;3.42;;;;;;;;;;4917612;29;20091;-73
2022/07/23 02:54:58;;;;;;;4.13;3.60;;;;;;;;;;4917406;29;20044;-74
2022/07/23 02:57:25;;;;;;;4.55;3.40;;;;;;;;;;4917153;29;20420;-73
2022/07/23 02:59:52;;;;;;;5.60;3.75;;;;;;;;;;4916022;29;20063;-73
2022/07/23 03:02:18;;;;;;;4.20;3.78;;;;;;;;;;4917279;29;20056;-73
2022/07/23 03:04:45;;;;;;;4.72;3.72;;;;;;;;;;4917037;29;20056;-73
2022/07/23 03:07:12;;;;;;;3.97;3.38;;;;;;;;;;4917063;29;20059;-74
2022/07/23 03:09:38;;;;;;;4.40;4.00;;;;;;;;;;4916655;29;20069;-74
2022/07/23 03:12:05;;;;;;;3.88;3.58;;;;;;;;;;4916744;29;20048;-74
2022/07/23 03:14:39;;;;;;;4.18;3.60;;;;;;;;;;4916717;29;20503;-74
2022/07/23 03:17:06;;;;;;;3.72;3.42;;;;;;;;;;4915597;29;20052;-73
2022/07/23 03:19:33;;;;;;;3.90;3.58;;;;;;;;;;4915567;29;20052;-73
2022/07/23 03:21:59;;;;;;;4.90;3.60;;;;;;;;;;4916561;29;20052;-74
2022/07/23 03:24:53;;;;;;;4.10;3.75;;;;;;;;;;4916341;29;20059;-73
2022/07/23 03:27:13;;;;;;;4.47;4.07;;;;;;;;;;4915655;29;20504;-73
2022/07/23 03:29:39;;;;;;;4.03;3.50;;;;;;;;;;4916389;29;20056;-74
2022/07/23 03:32:06;;;;;;;4.05;3.53;;;;;;;;;;4916965;29;20058;-73
2022/07/23 03:34:33;;;;;;;3.95;3.55;;;;;;;;;;4916677;29;20059;-72
2022/07/23 03:36:59;;;;;;;3.80;3.42;;;;;;;;;;4916368;29;20428;-72
2022/07/23 03:39:28;;;;;;;4.00;3.70;;;;;;;;;;4916558;29;20135;-72
2022/07/23 03:41:55;;;;;;;3.65;3.35;;;;;;;;;;4915560;29;20067;-72
2022/07/23 03:44:21;;;;;;;5.20;3.85;;;;;;;;;;4916317;29;20086;-72
2022/07/23 03:46:48;;;;;;;4.20;3.80;;;;;;;;;;4916254;29;20048;-72
2022/07/23 03:49:14;;;;;;;4.22;3.83;;;;;;;;;;4915896;29;20480;-72
2022/07/23 03:51:41;;;;;;;4.72;3.60;;;;;;;;;;4916390;29;20111;-72
2022/07/23 03:54:08;;;;;;;4.32;3.90;;;;;;;;;;4916357;29;20052;-72
2022/07/23 03:56:35;;;;;;;4.30;3.90;;;;;;;;;;4915282;29;20059;-72
2022/07/23 03:59:01;;;;;;;4.70;4.30;;;;;;;;;;4916188;29;20056;-72
2022/07/23 04:01:29;;;;;;;6.13;4.18;;;;;;;;;;4930641;29;20131;-73
2022/07/23 04:03:55;;;;;;;4.28;3.88;;;;;;;;;;4914825;29;20056;-72
2022/07/23 04:06:22;;;;;;;5.03;3.75;;;;;;;;;;4915877;29;20059;-73
2022/07/23 04:08:49;;;;;;;4.18;3.88;;;;;;;;;;4916323;29;20222;-72
2022/07/23 04:11:15;;;;;;;4.57;4.18;;;;;;;;;;4915807;29;20058;-72
2022/07/23 04:13:42;;;;;;;4.40;4.00;;;;;;;;;;4915798;29;20056;-71
2022/07/23 04:16:08;;;;;;;5.00;3.80;;;;;;;;;;4915880;29;20048;-73
2022/07/23 04:18:35;;;;;;;4.07;3.72;;;;;;;;;;4915803;29;20079;-70
2022/07/23 04:21:02;;;;;;;4.75;3.97;;;;;;;;;;4915679;29;20071;-70
2022/07/23 04:23:29;;;;;;;4.55;4.13;;;;;;;;;;4915576;29;20103;-70
2022/07/23 04:25:55;;;;;;;5.95;4.85;;;;;;;;;;4915671;29;20059;-70
2022/07/23 04:28:23;;;;;;;4.10;3.72;;;;;;;;;;4915971;29;20060;-70
2022/07/23 04:30:49;;;;;;;4.57;3.88;;;;;;;;;;4914489;29;20067;-71
2022/07/23 04:33:16;;;;;;;4.75;3.42;;;;;;;;;;4915334;29;20107;-70
2022/07/23 04:35:43;;;;;;;5.05;4.22;;;;;;;;;;4915603;29;20048;-70
2022/07/23 04:38:10;;;;;;;5.13;3.85;;;;;;;;;;4915742;29;20052;-70
2022/07/23 04:40:36;;;;;;;4.78;4.32;;;;;;;;;;4915539;29;20076;-70
2022/07/23 04:43:03;;;;;;;5.05;4.47;;;;;;;;;;4915965;29;20048;-70
2022/07/23 04:45:30;;;;;;;4.63;4.22;;;;;;;;;;4916541;29;20052;-70
2022/07/23 04:47:57;;;;;;;4.63;4.15;;;;;;;;;;4919282;29;20068;-70
2022/07/23 04:50:23;;;;;;;5.43;4.30;;;;;;;;;;4919321;29;20503;-70
2022/07/23 04:52:51;;;;;;;5.97;4.00;;;;;;;;;;4919165;29;20562;-70
2022/07/23 04:55:17;;;;;;;4.30;3.90;;;;;;;;;;4919525;29;20091;-70
2022/07/23 04:57:44;;;;;;;7.07;4.30;;;;;;;;;;4919345;29;20059;-70
2022/07/23 05:00:11;;;;;;;4.32;3.92;;;;;;;;;;4919088;29;20056;-70
2022/07/23 05:02:38;;;;;;;4.70;4.30;;;;;;;;;;4918854;29;20052;-70
2022/07/23 05:05:05;;;;;;;4.30;3.90;;;;;;;;;;4919100;29;20060;-70
2022/07/23 05:07:32;;;;;;;4.40;4.00;;;;;;;;;;4919423;29;20067;-70
2022/07/23 05:09:58;;;;;;;4.45;4.03;;;;;;;;;;4918766;29;20133;-70
2022/07/23 05:12:25;;;;;;;6.32;4.28;;;;;;;;;;4919258;29;20056;-70
2022/07/23 05:14:52;;;;;;;4.28;3.88;;;;;;;;;;4919130;29;20056;-70
2022/07/23 05:17:19;;;;;;;5.72;4.75;;;;;;;;;;4919425;29;20048;-70
2022/07/23 05:19:46;;;;;;;5.78;4.72;;;;;;;;;;4918905;29;20119;-70
2022/07/23 05:22:13;;;;;;;5.32;4.00;;;;;;;;;;4910767;29;20128;-70
2022/07/23 05:24:40;;;;;;;4.10;3.72;;;;;;;;;;4900236;29;20052;-70
2022/07/23 05:27:07;;;;;;;6.10;4.63;;;;;;;;;;4899964;29;20182;-70
2022/07/23 05:29:34;;;;;;;6.85;4.60;;;;;;;;;;4901429;29;20472;-71
2022/07/23 05:32:01;;;;;;;4.80;4.38;;;;;;;;;;4919004;29;20063;-71
2022/07/23 05:34:27;;;;;;;6.43;4.28;;;;;;;;;;4918562;29;20059;-70
2022/07/23 05:36:55;;;;;;;4.22;3.88;;;;;;;;;;4918742;29;20076;-70
2022/07/23 05:39:22;;;;;;;4.25;3.88;;;;;;;;;;4918549;29;20052;-70
2022/07/23 05:41:48;;;;;;;4.57;4.18;;;;;;;;;;4918545;29;20052;-71
2022/07/23 05:44:15;;;;;;;5.50;4.00;;;;;;;;;;4918352;29;20048;-70
2022/07/23 05:46:42;;;;;;;6.07;4.60;;;;;;;;;;4918912;29;20066;-70
2022/07/23 05:49:08;;;;;;;4.72;4.07;;;;;;;;;;4918277;29;20111;-71
2022/07/23 05:51:35;;;;;;;3.97;3.45;;;;;;;;;;4918465;29;20062;-71
2022/07/23 05:54:02;;;;;;;6.43;4.00;;;;;;;;;;4917208;29;20051;-71
2022/07/23 05:56:28;;;;;;;6.40;4.38;;;;;;;;;;4899754;29;20506;-70
2022/07/23 05:58:55;;;;;;;6.88;4.25;;;;;;;;;;4899387;29;20100;-70
2022/07/23 06:01:22;;;;;;;4.35;3.95;;;;;;;;;;4898104;29;20057;-70
2022/07/23 06:03:48;;;;;;;4.05;3.65;;;;;;;;;;4899500;29;20131;-71
2022/07/23 06:06:15;;;;;;;5.07;4.40;;;;;;;;;;4899507;29;20088;-71
2022/07/23 06:08:42;;;;;;;4.75;4.03;;;;;;;;;;4899151;29;20060;-71
2022/07/23 06:11:08;;;;;;;4.55;4.15;;;;;;;;;;4898993;29;20056;-71
2022/07/23 06:13:35;;;;;;;4.88;4.47;;;;;;;;;;4916927;29;20048;-70
2022/07/23 06:16:02;;;;;;;4.32;3.90;;;;;;;;;;4915542;29;20055;-71
2022/07/23 06:18:28;;;;;;;6.65;4.18;;;;;;;;;;4915004;29;20134;-70
2022/07/23 06:20:55;;;;;;;4.57;4.18;;;;;;;;;;4915475;29;20052;-69
2022/07/23 06:23:26;;;;;;;5.38;4.35;;;;;;;;;;4914483;29;20052;-70
2022/07/23 06:25:52;;;;;;;5.53;4.70;;;;;;;;;;4915418;29;20058;-69
2022/07/23 06:28:19;;;;;;;5.70;4.63;;;;;;;;;;4914008;29;20060;-69
2022/07/23 06:30:46;;;;;;;6.72;4.47;;;;;;;;;;4915654;29;20071;-70
2022/07/23 06:33:13;;;;;;;5.57;5.07;;;;;;;;;;4915214;29;20511;-70
2022/07/23 06:35:39;;;;;;;5.95;4.22;;;;;;;;;;4915701;29;20093;-70
2022/07/23 06:38:06;;;;;;;5.63;4.82;;;;;;;;;;4915067;29;20435;-70
2022/07/23 06:40:33;;;;;;;5.13;4.07;;;;;;;;;;4915305;29;20088;-70
2022/07/23 06:43:00;;;;;;;4.72;4.15;;;;;;;;;;4914477;29;20052;-70
2022/07/23 06:45:27;;;;;;;4.97;4.35;;;;;;;;;;4915457;29;20058;-70
2022/07/23 06:47:53;;;;;;;4.80;4.28;;;;;;;;;;4915180;29;20496;-70
2022/07/23 06:50:20;;;;;;;5.10;4.70;;;;;;;;;;4915172;29;20052;-70
2022/07/23 06:52:46;;;;;;;5.40;4.88;;;;;;;;;;4913839;29;20052;-69
2022/07/23 06:55:13;;;;;;;5.63;4.80;;;;;;;;;;4914632;29;20048;-70
2022/07/23 06:57:40;;;;;;;5.20;4.40;;;;;;;;;;4914975;29;20140;-69
2022/07/23 07:00:07;;;;;;;6.13;5.03;;;;;;;;;;4914952;29;20067;-70
2022/07/23 07:02:34;;;;;;;6.07;5.03;;;;;;;;;;4915239;29;20074;-71
2022/07/23 07:05:01;;;;;;;5.93;5.35;;;;;;;;;;4914945;29;20056;-70
2022/07/23 07:07:31;;;;;;;5.60;4.53;;;;;;;;;;4915251;29;20108;-69
2022/07/23 07:09:58;;;;;;;6.57;5.10;;;;;;;;;;4916959;29;20108;-69
2022/07/23 07:12:24;;;;;;;7.95;4.95;;;;;;;;;;4917081;29;20419;-69
2022/07/23 07:14:51;;;;;;;5.93;5.30;;;;;;;;;;4911340;29;20316;-72
2022/07/23 07:17:18;;;;;;;10.50;4.80;;;;;;;;;;4917600;29;20056;-71
2022/07/23 07:19:44;;;;;;;4.85;4.35;;;;;;;;;;4918793;29;20431;-68
2022/07/23 07:22:11;;;;;;;5.55;4.95;;;;;;;;;;4915076;29;20055;-68
2022/07/23 07:24:38;;;;;;;5.38;4.80;;;;;;;;;;4915246;29;20052;-67
2022/07/23 07:27:04;;;;;;;5.55;4.75;;;;;;;;;;4914461;29;20075;-67
2022/07/23 07:29:31;;;;;;;5.30;4.80;;;;;;;;;;4911539;29;20059;-67
2022/07/23 07:31:58;;;;;;;6.97;5.25;;;;;;;;;;4914820;29;20059;-67
2022/07/23 07:34:25;;;;;;;6.50;4.53;;;;;;;;;;4914494;29;20056;-66
2022/07/23 07:36:51;;;;;;;7.60;4.55;;;;;;;;;;4914084;29;20217;-66
2022/07/23 07:39:18;;;;;;;7.15;5.25;;;;;;;;;;4913212;29;20055;-66
2022/07/23 07:41:44;;;;;;;7.70;5.00;;;;;;;;;;4915070;29;20048;-67
2022/07/23 07:44:11;;;;;;;5.88;4.97;;;;;;;;;;4914485;29;20048;-67
2022/07/23 07:46:38;;;;;;;5.85;4.88;;;;;;;;;;4911355;29;20048;-67
2022/07/23 07:49:04;;;;;;;5.18;4.72;;;;;;;;;;4914961;29;20048;-68
2022/07/23 07:51:33;;;;;;;5.93;5.43;;;;;;;;;;4914990;29;20566;-68
2022/07/23 07:54:00;;;;;;;7.88;6.00;;;;;;;;;;4914575;29;20116;-67
2022/07/23 07:56:27;;;;;;;7.28;5.32;;;;;;;;;;4914505;29;20488;-67
2022/07/23 07:58:54;;;;;;;6.38;5.22;;;;;;;;;;4913705;29;20060;-67
2022/07/23 08:01:21;;;;;;;6.05;5.28;;;;;;;;;;4914920;29;20067;-67
2022/07/23 08:03:48;;;;;;;6.57;5.47;;;;;;;;;;4892789;29;20048;-67
2022/07/23 08:06:14;;;;;;;5.93;5.40;;;;;;;;;;4915192;29;20095;-67
2022/07/23 08:08:41;;;;;;;5.57;4.97;;;;;;;;;;4914012;29;20079;-67
2022/07/23 08:11:08;;;;;;;5.35;4.85;;;;;;;;;;4915700;29;20103;-67
2022/07/23 08:13:34;;;;;;;5.68;5.00;;;;;;;;;;4914759;29;20053;-69
2022/07/23 08:16:01;;;;;;;5.72;4.82;;;;;;;;;;4911260;29;20052;-70
2022/07/23 08:18:34;;;;;;;5.93;5.28;;;;;;;;;;4914537;29;20502;-68
2022/07/23 08:21:01;;;;;;;8.40;5.55;;;;;;;;;;4912689;29;20058;-67
2022/07/23 08:23:28;;;;;;;5.65;5.07;;;;;;;;;;4914725;29;20052;-67
2022/07/23 08:25:56;;;;;;;5.78;5.28;;;;;;;;;;4914470;29;20059;-67
2022/07/23 08:28:23;;;;;;;6.55;5.47;;;;;;;;;;4914669;29;20063;-68
2022/07/23 08:30:49;;;;;;;5.47;4.97;;;;;;;;;;4914136;29;20052;-68
2022/07/23 08:33:17;;;;;;;5.28;4.78;;;;;;;;;;4914852;29;20052;-69
2022/07/23 08:35:59;;;;;;;6.22;5.32;;;;;;;;;;4911406;29;20048;-67
2022/07/23 08:38:25;;;;;;;5.82;5.28;;;;;;;;;;4914182;29;20079;-67
2022/07/23 08:40:54;;;;;;;5.20;4.80;;;;;;;;;;4914562;29;20055;-67
2022/07/23 08:43:26;;;;;;;5.97;5.43;;;;;;;;;;4913477;29;20048;-68
2022/07/23 08:45:58;;;;;;;6.05;5.50;;;;;;;;;;4913996;29;20081;-68
2022/07/23 08:48:32;;;;;;;6.60;5.25;;;;;;;;;;4912948;29;20048;-67
2022/07/23 08:51:00;;;;;;;6.15;5.25;;;;;;;;;;4913904;29;20063;-67
2022/07/23 08:53:28;;;;;;;5.80;5.10;;;;;;;;;;4903327;29;20052;-68
2022/07/23 08:55:56;;;;;;;5.32;4.82;;;;;;;;;;4913918;29;20519;-67
2022/07/23 08:58:23;;;;;;;6.15;5.22;;;;;;;;;;4914286;29;20055;-67
2022/07/23 09:00:56;;;;;;;5.57;5.07;;;;;;;;;;4913811;29;20048;-67
2022/07/23 09:03:25;;;;;;;5.40;4.90;;;;;;;;;;4914194;29;20056;-66
2022/07/23 09:05:52;;;;;;;6.57;4.72;;;;;;;;;;4914021;29;20048;-67
2022/07/23 09:08:23;;;;;;;5.32;4.80;;;;;;;;;;4913434;29;20064;-67
2022/07/23 09:11:01;;;;;;;5.13;4.65;;;;;;;;;;4915405;29;20492;-67
2022/07/23 09:13:34;;;;;;;4.63;4.25;;;;;;;;;;4913518;29;20060;-67
2022/07/23 09:16:02;;;;;;;5.85;4.43;;;;;;;;;;4910750;29;20052;-69
2022/07/23 09:18:31;;;;;;;4.80;4.40;;;;;;;;;;4912910;29;20052;-66
2022/07/23 09:21:07;;;;;;;4.70;4.30;;;;;;;;;;4910670;29;20447;-67
2022/07/23 09:23:43;;;;;;;4.70;4.30;;;;;;;;;;4920581;29;20072;-66
2022/07/23 09:26:29;;;;;;;4.13;3.83;;;;;;;;;;4911530;29;20059;-66
2022/07/23 09:29:12;;;;;;;5.82;4.50;;;;;;;;;;4912605;29;20070;-66
2022/07/23 09:31:44;;;;;;;4.55;4.15;;;;;;;;;;4913031;29;20136;-66
2022/07/23 09:34:23;;;;;;;4.53;4.13;;;;;;;;;;4915538;29;20074;-67
2022/07/23 09:36:55;;;;;;;4.57;4.15;;;;;;;;;;4917469;29;20088;-66
2022/07/23 09:39:28;;;;;;;6.63;4.57;;;;;;;;;;4916942;29;20059;-66
2022/07/23 09:41:57;;;;;;;4.10;3.80;;;;;;;;;;4916762;29;20052;-66
2022/07/23 09:44:23;;;;;;;5.03;4.22;;;;;;;;;;4916551;29;20048;-66
2022/07/23 09:46:58;;;;;;;4.60;4.20;;;;;;;;;;4917149;29;20139;-68
2022/07/23 09:49:25;;;;;;;4.68;4.28;;;;;;;;;;4916144;29;20084;-69
2022/07/23 09:51:57;;;;;;;4.38;3.97;;;;;;;;;;4916684;29;20056;-66
2022/07/23 09:54:26;;;;;;;4.40;4.10;;;;;;;;;;4914928;29;20052;-67
2022/07/23 09:56:53;;;;;;;6.20;4.20;;;;;;;;;;4916816;29;20530;-67
2022/07/23 09:59:24;;;;;;;5.28;4.00;;;;;;;;;;4916540;29;20507;-68
2022/07/23 10:01:53;;;;;;;4.60;4.20;;;;;;;;;;4916661;29;20056;-68
2022/07/23 10:04:21;;;;;;;4.93;3.90;;;;;;;;;;4913077;29;20072;-66
2022/07/23 10:06:51;;;;;;;4.10;3.80;;;;;;;;;;4915373;29;20060;-68
2022/07/23 10:09:17;;;;;;;4.57;4.20;;;;;;;;;;4916912;29;20055;-68
2022/07/23 10:11:44;;;;;;;4.70;4.30;;;;;;;;;;4916109;29;20056;-68
2022/07/23 10:14:11;;;;;;;4.38;3.95;;;;;;;;;;4914314;29;20048;-68
2022/07/23 10:16:38;;;;;;;4.82;4.43;;;;;;;;;;4906127;29;20063;-68
2022/07/23 10:19:05;;;;;;;4.57;4.15;;;;;;;;;;4913220;29;20088;-69
2022/07/23 10:21:46;;;;;;;5.30;4.68;;;;;;;;;;4913157;29;20083;-67
2022/07/23 10:24:45;;;;;;;4.18;3.78;;;;;;;;;;4906842;29;20048;-67
2022/07/23 10:27:30;;;;;;;4.45;4.05;;;;;;;;;;4912698;29;20503;-68
2022/07/23 10:30:11;;;;;;;4.28;3.88;;;;;;;;;;4914279;29;20056;-67
2022/07/23 10:32:48;;;;;;;4.88;4.10;;;;;;;;;;4893095;29;20048;-68
2022/07/23 10:35:40;;;;;;;4.80;3.88;;;;;;;;;;4909846;29;20051;-68
2022/07/23 10:38:11;;;;;;;5.70;4.32;;;;;;;;;;4912520;29;20052;-68
2022/07/23 10:41:01;;;;;;;4.57;4.18;;;;;;;;;;4911861;29;20175;-69
2022/07/23 10:43:28;;;;;;;12.77;8.98;;;;;;;;;;4912107;29;20059;-68
2022/07/23 10:45:56;;;;;;;4.50;4.10;;;;;;;;;;4913778;29;20056;-67
2022/07/23 10:48:26;;;;;;;4.82;4.32;;;;;;;;;;4913800;29;20052;-68
2022/07/23 10:51:13;;;;;;;6.15;4.95;;;;;;;;;;4913877;29;20055;-68
2022/07/23 10:53:49;;;;;;;5.60;4.97;;;;;;;;;;4910628;29;20052;-68
2022/07/23 10:56:16;;;;;;;4.82;4.43;;;;;;;;;;4914306;29;20072;-67
2022/07/23 10:58:48;;;;;;;4.57;4.18;;;;;;;;;;4906725;29;20048;-67
2022/07/23 11:01:34;;;;;;;5.15;4.32;;;;;;;;;;4913984;29;20048;-67
2022/07/23 11:04:01;;;;;;;4.82;3.90;;;;;;;;;;4912018;29;20559;-68
2022/07/23 11:07:02;;;;;;;5.40;4.85;;;;;;;;;;4912053;29;20060;-67
2022/07/23 11:09:37;;;;;;;5.43;4.93;;;;;;;;;;4908260;29;20063;-67
2022/07/23 11:12:13;;;;;;;6.22;5.13;;;;;;;;;;4911665;29;20075;-67
2022/07/23 11:15:07;;;;;;;5.18;4.68;;;;;;;;;;4911879;29;20058;-67
2022/07/23 11:17:45;;;;;;;5.00;4.22;;;;;;;;;;4911169;29;20125;-68
2022/07/23 11:20:20;;;;;;;4.93;4.28;;;;;;;;;;4904544;29;20052;-68
2022/07/23 11:22:50;;;;;;;4.63;4.22;;;;;;;;;;4911163;29;20059;-68
2022/07/23 11:25:22;;;;;;;5.32;4.82;;;;;;;;;;4914347;29;20052;-68
2022/07/23 11:27:49;;;;;;;;;;;;;;;;;;4913849;29;20044;-69
2022/07/23 11:30:31;;;;;;;4.15;3.85;;;;;;;;;;4914787;29;19926;-70
2022/07/23 11:33:13;;;;;;;4.47;4.05;;;;;;;;;;4913372;29;20048;-70
2022/07/23 11:36:02;;;;;;;5.55;4.35;;;;;;;;;;4914883;29;20055;-70
2022/07/23 11:38:45;;;;;;;4.72;4.10;;;;;;;;;;4913131;29;20099;-69
2022/07/23 11:41:19;;;;;;;4.95;4.20;;;;;;;;;;4893215;29;20059;-70
2022/07/23 11:43:54;;;;;;;4.70;3.63;;;;;;;;;;4914087;29;20063;-74
2022/07/23 11:46:24;;;;;;;4.43;3.85;;;;;;;;;;4915147;29;20052;-71
2022/07/23 11:49:10;;;;;;;4.38;3.97;;;;;;;;;;4917706;29;20519;-69
2022/07/23 11:51:41;;;;;;;4.38;3.97;;;;;;;;;;4914598;29;20063;-69
2022/07/23 11:54:11;;;;;;;4.00;3.60;;;;;;;;;;4916159;29;20141;-68
2022/07/23 11:57:00;;;;;;;5.70;3.92;;;;;;;;;;4914261;29;20052;-69
2022/07/23 11:59:44;;;;;;;4.07;3.78;;;;;;;;;;4906608;29;20075;-68
2022/07/23 12:02:13;;;;;;;4.40;4.00;;;;;;;;;;4883271;29;20048;-68
2022/07/23 12:04:48;;;;;;;4.30;3.90;;;;;;;;;;4915016;29;20143;-69
2022/07/23 12:07:51;;;;;;;4.10;3.80;;;;;;;;;;4898228;29;20492;-69
2022/07/23 12:10:56;;;;;;;6.07;3.90;;;;;;;;;;4914342;29;20139;-68
2022/07/23 12:13:39;;;;;;;4.45;4.05;;;;;;;;;;4913427;29;20135;-69
2022/07/23 12:16:07;;;;;;;4.72;4.30;;;;;;;;;;4914844;29;20079;-68
2022/07/23 12:18:44;;;;;;;4.72;4.28;;;;;;;;;;4898565;29;20057;-68
2022/07/23 12:21:19;;;;;;;5.60;4.47;;;;;;;;;;4908015;29;20055;-70
2022/07/23 12:23:48;;;;;;;4.53;4.15;;;;;;;;;;4909325;29;20056;-68
2022/07/23 12:26:15;;;;;;;6.07;4.30;;;;;;;;;;4912943;29;20427;-69
2022/07/23 12:28:43;;;;;;;5.10;4.70;;;;;;;;;;4914924;29;21410;-68
2022/07/23 12:31:09;;;;;;;5.35;4.25;;;;;;;;;;4914948;29;20055;-70
2022/07/23 12:33:39;;;;;;;4.75;4.32;;;;;;;;;;4914126;29;20117;-68
2022/07/23 12:36:07;;;;;;;4.10;3.78;;;;;;;;;;4914362;29;20056;-68
2022/07/23 12:38:44;;;;;;;4.95;4.28;;;;;;;;;;4915261;29;20044;-72
2022/07/23 12:41:10;;;;;;;4.88;4.45;;;;;;;;;;4909050;29;20048;-73
2022/07/23 12:43:39;;;;;;;5.35;3.85;;;;;;;;;;4909761;29;20052;-74
2022/07/23 12:46:08;;;;;;;4.70;4.30;;;;;;;;;;4913321;29;20060;-73
2022/07/23 12:48:39;;;;;;;4.20;3.85;;;;;;;;;;4912472;29;20337;-68
2022/07/23 12:51:07;;;;;;;4.67;4.10;;;;;;;;;;4912755;29;20107;-70
2022/07/23 12:53:44;;;;;;;4.20;3.88;;;;;;;;;;4909305;29;20312;-71
2022/07/23 12:56:14;;;;;;;4.72;4.18;;;;;;;;;;4910475;29;20532;-69
2022/07/23 12:58:58;;;;;;;4.80;4.40;;;;;;;;;;4912624;29;20051;-67
2022/07/23 13:01:26;;;;;;;4.80;4.40;;;;;;;;;;4915104;29;20436;-68
2022/07/23 13:04:00;;;;;;;4.45;4.05;;;;;;;;;;4928732;29;20028;-69
2022/07/23 13:06:38;;;;;;;5.47;4.18;;;;;;;;;;4919553;29;20052;-70
2022/07/23 13:09:08;;;;;;;4.63;4.22;;;;;;;;;;4912832;29;20056;-69
2022/07/23 13:11:35;;;;;;;4.72;4.32;;;;;;;;;;4915401;29;20056;-70
2022/07/23 13:14:02;;;;;;;4.47;4.07;;;;;;;;;;4915803;29;20058;-69
2022/07/23 13:16:29;;;;;;;4.75;4.38;;;;;;;;;;4915805;29;20062;-69
2022/07/23 13:18:57;;;;;;;4.50;4.10;;;;;;;;;;4915523;29;20206;-69
2022/07/23 13:21:26;;;;;;;5.22;4.47;;;;;;;;;;4915757;29;20048;-70
2022/07/23 13:23:53;;;;;;;5.05;4.60;;;;;;;;;;4909305;29;20819;-71
2022/07/23 13:26:19;;;;;;;5.18;4.40;;;;;;;;;;4915975;29;20434;-69
2022/07/23 13:28:48;;;;;;;5.28;4.50;;;;;;;;;;4915615;29;20044;-69
2022/07/23 13:31:15;;;;;;;4.85;4.40;;;;;;;;;;4914598;29;20052;-69
2022/07/23 13:33:42;;;;;;;4.50;4.10;;;;;;;;;;4916645;29;20096;-68
2022/07/23 13:36:09;;;;;;;4.70;4.30;;;;;;;;;;4917456;29;20048;-67
2022/07/23 13:38:36;;;;;;;4.88;4.30;;;;;;;;;;4917435;29;20056;-68
2022/07/23 13:41:03;;;;;;;4.85;4.45;;;;;;;;;;4916944;29;20064;-67
2022/07/23 13:43:30;;;;;;;4.45;4.15;;;;;;;;;;4917149;29;20508;-67
2022/07/23 13:46:02;;;;;;;7.00;4.47;;;;;;;;;;4917116;29;20052;-67
2022/07/23 13:48:29;;;;;;;5.22;4.70;;;;;;;;;;4916963;29;20085;-68
2022/07/23 13:50:55;;;;;;;5.63;5.13;;;;;;;;;;4913191;29;20056;-69
2022/07/23 13:53:23;;;;;;;6.05;5.45;;;;;;;;;;4917102;29;20516;-69
2022/07/23 13:55:52;;;;;;;5.40;4.90;;;;;;;;;;4916485;29;20496;-67
2022/07/23 13:58:20;;;;;;;5.47;4.97;;;;;;;;;;4916822;29;20049;-66
2022/07/23 14:00:51;;;;;;;5.18;4.65;;;;;;;;;;4916784;29;20060;-68
2022/07/23 14:03:20;;;;;;;5.18;4.78;;;;;;;;;;4914524;29;20052;-67
2022/07/23 14:05:47;;;;;;;5.22;4.72;;;;;;;;;;4914803;29;20079;-67
2022/07/23 14:08:15;;;;;;;5.07;4.63;;;;;;;;;;4907804;29;20048;-68
2022/07/23 14:10:42;;;;;;;5.25;4.85;;;;;;;;;;4915248;29;20048;-67
2022/07/23 14:13:09;;;;;;;4.78;4.38;;;;;;;;;;4914317;29;20440;-67
2022/07/23 14:15:38;;;;;;;5.70;5.20;;;;;;;;;;4913867;29;20147;-67
2022/07/23 14:18:05;;;;;;;5.05;4.60;;;;;;;;;;4914043;29;20044;-67
2022/07/23 14:20:32;;;;;;;5.60;5.05;;;;;;;;;;4914699;29;20052;-67
2022/07/23 14:23:00;;;;;;;6.00;5.10;;;;;;;;;;4914082;29;20079;-66
2022/07/23 14:25:47;;;;;;;5.00;4.50;;;;;;;;;;4913909;29;20060;-66
2022/07/23 14:28:14;;;;;;;4.32;3.97;;;;;;;;;;4914570;29;20052;-67
2022/07/23 14:30:43;;;;;;;6.30;4.68;;;;;;;;;;4913946;29;20052;-66
2022/07/23 14:33:10;;;;;;;5.05;4.50;;;;;;;;;;4910758;29;20407;-66
2022/07/23 14:35:39;;;;;;;4.80;4.40;;;;;;;;;;4913782;29;20055;-66
2022/07/23 14:38:06;;;;;;;5.75;4.20;;;;;;;;;;4907641;29;20048;-66
2022/07/23 14:40:33;;;;;;;5.32;4.40;;;;;;;;;;4913912;29;20052;-66
2022/07/23 14:42:59;;;;;;;4.80;4.40;;;;;;;;;;4913786;29;20532;-66
2022/07/23 14:45:28;;;;;;;5.03;4.63;;;;;;;;;;4914581;29;20052;-66
2022/07/23 14:47:55;;;;;;;6.38;5.15;;;;;;;;;;4913765;29;20180;-66
2022/07/23 14:50:23;;;;;;;4.88;4.43;;;;;;;;;;4913104;29;20083;-65
2022/07/23 14:52:50;;;;;;;5.47;4.95;;;;;;;;;;4913907;29;20090;-66
2022/07/23 14:55:18;;;;;;;5.22;4.82;;;;;;;;;;4913698;29;20044;-66